Time;durP1;ratioP1;P1;durP2;ratioP2;P2;SDS_P1;SDS_P2;PMS_P1;PMS_P2;Temp;Humidity;BMP_temperature;BMP_pressure;BME280_temperature;BME280_humidity;BME280_pressure;Samples;Min_cycle;Max_cycle;Signal;HPM_P1;HPM_P2
2022/02/03 00:01:00;;;;;;;28.75;9.82;;;;;;;;;;5041728;28;20119;-63
2022/02/03 00:03:24;;;;;;;27.30;8.75;;;;;;;;;;5041323;28;20049;-63
2022/02/03 00:06:00;;;;;;;24.20;8.35;;;;;;;;;;5043146;28;20033;-65
2022/02/03 00:08:53;;;;;;;30.50;9.48;;;;;;;;;;5041866;28;20391;-64
2022/02/03 00:21:59;;;;;;;43.40;10.95;;;;;;;;;;5041710;28;20079;-63
2022/02/03 00:27:48;;;;;;;37.25;11.68;;;;;;;;;;5040064;28;20201;-63
2022/02/03 00:30:18;;;;;;;34.45;10.32;;;;;;;;;;5042784;28;20028;-64
2022/02/03 00:33:06;;;;;;;40.22;11.57;;;;;;;;;;5043870;28;20120;-63
2022/02/03 00:38:39;;;;;;;33.45;10.60;;;;;;;;;;5040454;28;20036;-63
2022/02/03 00:49:36;;;;;;;36.55;8.80;;;;;;;;;;5044223;28;20062;-62
2022/02/03 00:52:02;;;;;;;;;;;;;;;;;;5042001;28;20123;-62
2022/02/03 00:54:31;;;;;;;22.73;8.00;;;;;;;;;;5025187;28;20324;-63
2022/02/03 00:57:04;;;;;;;28.60;8.77;;;;;;;;;;5042244;28;20027;-63
2022/02/03 00:59:39;;;;;;;26.92;8.07;;;;;;;;;;5043618;28;20074;-63
2022/02/03 01:02:10;;;;;;;27.77;8.57;;;;;;;;;;5040255;28;20068;-63
2022/02/03 01:04:41;;;;;;;27.08;9.23;;;;;;;;;;5041371;28;20123;-62
2022/02/03 01:07:14;;;;;;;29.33;9.52;;;;;;;;;;5057755;28;20028;-62
2022/02/03 01:09:51;;;;;;;28.45;9.77;;;;;;;;;;5040352;28;20024;-63
2022/02/03 01:12:28;;;;;;;30.63;9.60;;;;;;;;;;5040835;28;20479;-63
2022/02/03 01:15:12;;;;;;;34.15;9.57;;;;;;;;;;5042657;28;20487;-63
2022/02/03 01:18:17;;;;;;;31.48;9.60;;;;;;;;;;5039060;28;20087;-63
2022/02/03 01:45:15;;;;;;;22.67;7.90;;;;;;;;;;5040842;28;20105;-63
2022/02/03 01:52:41;;;;;;;18.42;7.78;;;;;;;;;;5046504;28;20131;-62
2022/02/03 01:55:13;;;;;;;19.85;8.38;;;;;;;;;;5041981;28;20033;-63
2022/02/03 01:57:41;;;;;;;26.08;8.52;;;;;;;;;;5027853;28;20025;-61
2022/02/03 02:00:16;;;;;;;27.83;8.23;;;;;;;;;;5040030;28;20032;-61
2022/02/03 02:02:53;;;;;;;23.10;8.48;;;;;;;;;;5025932;28;20154;-64
2022/02/03 02:05:22;;;;;;;36.92;10.35;;;;;;;;;;5044454;28;20032;-62
2022/02/03 02:08:02;;;;;;;38.90;11.10;;;;;;;;;;5045136;28;20029;-62
2022/02/03 02:13:18;;;;;;;43.65;12.52;;;;;;;;;;5042756;28;20119;-62
2022/02/03 02:16:05;;;;;;;40.08;13.35;;;;;;;;;;5045886;28;20085;-62
2022/02/03 02:41:51;;;;;;;50.75;15.90;;;;;;;;;;5046216;28;20036;-63
2022/02/03 02:44:11;;;;;;;50.50;15.35;;;;;;;;;;5041948;28;20041;-61
2022/02/03 02:46:36;;;;;;;54.08;15.93;;;;;;;;;;5041328;28;20463;-62
2022/02/03 02:49:13;;;;;;;52.40;15.55;;;;;;;;;;5042242;28;20067;-62
2022/02/03 02:52:02;;;;;;;57.17;16.48;;;;;;;;;;5026017;28;20037;-63
2022/02/03 03:03:20;;;;;;;47.72;15.15;;;;;;;;;;5043689;28;20033;-61
2022/02/03 03:31:39;;;;;;;46.75;15.88;;;;;;;;;;5043107;28;20868;-61
2022/02/03 03:36:10;;;;;;;50.47;13.57;;;;;;;;;;5039336;28;20148;-60
2022/02/03 03:38:40;;;;;;;57.75;15.68;;;;;;;;;;5028969;28;20131;-62
2022/02/03 03:41:12;;;;;;;47.80;14.75;;;;;;;;;;5044767;28;20711;-61
2022/02/03 03:43:44;;;;;;;43.22;15.55;;;;;;;;;;5044076;28;20028;-61
2022/02/03 03:46:20;;;;;;;36.63;14.25;;;;;;;;;;5042287;28;20036;-61
2022/02/03 03:48:48;;;;;;;50.97;14.52;;;;;;;;;;5044190;28;20044;-62
2022/02/03 03:51:15;;;;;;;40.10;14.60;;;;;;;;;;5044174;28;20374;-60
2022/02/03 03:53:57;;;;;;;65.65;14.75;;;;;;;;;;5044976;28;20033;-61
2022/02/03 03:56:40;;;;;;;34.97;13.73;;;;;;;;;;5046341;28;20033;-61
2022/02/03 05:05:39;;;;;;;36.75;12.32;;;;;;;;;;5041672;28;20020;-60
2022/02/03 05:08:50;;;;;;;35.67;12.60;;;;;;;;;;5041138;28;20029;-62
2022/02/03 05:20:30;;;;;;;41.53;16.05;;;;;;;;;;5042095;28;22253;-63
2022/02/03 05:25:57;;;;;;;50.10;18.38;;;;;;;;;;5043409;28;20135;-61
2022/02/03 05:42:05;;;;;;;59.45;20.13;;;;;;;;;;5039313;28;20051;-60
2022/02/03 05:51:06;;;;;;;54.85;19.77;;;;;;;;;;5045351;28;20126;-62
2022/02/03 05:52:56;;;;;;;;;;;;;;;;;;5036686;28;20437;-61
2022/02/03 06:06:01;;;;;;;71.33;23.60;;;;;;;;;;5046071;28;20471;-61
2022/02/03 06:08:48;;;;;;;68.60;23.05;;;;;;;;;;5042677;28;20051;-62
2022/02/03 06:14:14;;;;;;;71.00;22.23;;;;;;;;;;5036120;28;20154;-61
2022/02/03 06:22:41;;;;;;;66.65;21.77;;;;;;;;;;5042195;28;20043;-63
2022/02/03 06:27:44;;;;;;;70.80;21.75;;;;;;;;;;5027839;28;20037;-61
2022/02/03 06:30:16;;;;;;;73.65;21.98;;;;;;;;;;5037644;28;20028;-62
2022/02/03 06:35:41;;;;;;;76.93;21.20;;;;;;;;;;5047639;28;19998;-61
2022/02/03 06:38:15;;;;;;;86.90;23.08;;;;;;;;;;5043310;28;20071;-65
2022/02/03 06:40:44;;;;;;;78.05;22.60;;;;;;;;;;5027447;28;20028;-61
2022/02/03 06:43:14;;;;;;;89.38;24.08;;;;;;;;;;5046505;28;20040;-61
2022/02/03 06:45:46;;;;;;;80.80;25.85;;;;;;;;;;5046115;28;20033;-62
2022/02/03 06:48:17;;;;;;;89.85;24.38;;;;;;;;;;5045142;28;20037;-62
2022/02/03 06:50:54;;;;;;;88.28;24.67;;;;;;;;;;5028557;28;20047;-60
2022/02/03 06:53:25;;;;;;;87.95;26.55;;;;;;;;;;5043154;28;20875;-63
2022/02/03 06:56:02;;;;;;;94.35;23.77;;;;;;;;;;5030168;28;20158;-62
2022/02/03 06:58:41;;;;;;;85.10;26.50;;;;;;;;;;5044396;28;20036;-61
2022/02/03 07:04:18;;;;;;;91.10;24.80;;;;;;;;;;5041504;28;20033;-61
2022/02/03 07:06:43;;;;;;;83.88;23.70;;;;;;;;;;5049337;28;20098;-61
2022/02/03 07:09:11;;;;;;;77.25;22.85;;;;;;;;;;5045220;28;20079;-61
2022/02/03 07:14:51;;;;;;;79.20;23.48;;;;;;;;;;5045874;28;20052;-61
2022/02/03 07:17:18;;;;;;;70.88;20.25;;;;;;;;;;5028636;28;20033;-62
2022/02/03 07:19:50;;;;;;;105.15;25.55;;;;;;;;;;5032669;28;20119;-60
2022/02/03 07:22:16;;;;;;;70.45;21.30;;;;;;;;;;5048798;28;20075;-60
2022/02/03 07:24:46;;;;;;;71.25;22.38;;;;;;;;;;5045320;28;20529;-60
2022/02/03 07:27:14;;;;;;;84.20;21.63;;;;;;;;;;5047386;28;20073;-61
2022/02/03 07:29:44;;;;;;;71.07;21.45;;;;;;;;;;5046869;28;20872;-62
2022/02/03 07:32:09;;;;;;;81.18;20.02;;;;;;;;;;5062717;28;20080;-61
2022/02/03 07:34:35;;;;;;;70.05;20.85;;;;;;;;;;5045457;28;20039;-61
2022/02/03 07:37:00;;;;;;;62.67;20.05;;;;;;;;;;5044077;28;20129;-61
2022/02/03 07:39:33;;;;;;;70.80;18.75;;;;;;;;;;5044842;28;20032;-61
2022/02/03 07:42:01;;;;;;;53.55;18.17;;;;;;;;;;5038945;28;20045;-61
2022/02/03 07:44:31;;;;;;;56.95;19.13;;;;;;;;;;5039676;28;20016;-61
2022/02/03 07:46:59;;;;;;;66.93;17.15;;;;;;;;;;5043040;28;20518;-61
2022/02/03 07:49:30;;;;;;;55.75;18.13;;;;;;;;;;5023806;28;20024;-61
2022/02/03 07:51:56;;;;;;;58.28;19.02;;;;;;;;;;5023958;28;20051;-61
2022/02/03 07:54:24;;;;;;;59.70;18.83;;;;;;;;;;5041384;28;20453;-62
2022/02/03 07:56:56;;;;;;;55.35;18.27;;;;;;;;;;5023382;28;20044;-61
2022/02/03 07:59:22;;;;;;;51.00;17.48;;;;;;;;;;5038307;28;20486;-62
2022/02/03 08:01:50;;;;;;;56.97;18.13;;;;;;;;;;5010904;28;20036;-61
2022/02/03 08:04:20;;;;;;;56.13;17.10;;;;;;;;;;5043397;28;20503;-64
2022/02/03 08:06:48;;;;;;;42.90;18.73;;;;;;;;;;5042819;28;21618;-62
2022/02/03 08:09:34;;;;;;;48.40;18.17;;;;;;;;;;5043265;28;20039;-62
2022/02/03 08:12:02;;;;;;;50.92;17.35;;;;;;;;;;5040804;28;20498;-61
2022/02/03 08:14:38;;;;;;;52.03;17.70;;;;;;;;;;5041950;28;20514;-60
2022/02/03 08:17:10;;;;;;;50.15;17.85;;;;;;;;;;5044081;28;20040;-62
2022/02/03 08:22:18;;;;;;;53.65;18.75;;;;;;;;;;5037029;28;20044;-62
2022/02/03 08:32:32;;;;;;;54.83;19.83;;;;;;;;;;5042176;28;20246;-60
2022/02/03 08:35:20;;;;;;;55.65;20.05;;;;;;;;;;5039246;28;21019;-61
2022/02/03 08:40:30;;;;;;;;;;;;;;;;;;5043273;28;20063;-62
2022/02/03 08:42:58;;;;;;;55.90;21.80;;;;;;;;;;5040159;28;20514;-64
2022/02/03 08:45:23;;;;;;;58.47;20.23;;;;;;;;;;5041974;28;20029;-63
2022/02/03 08:47:51;;;;;;;60.60;19.48;;;;;;;;;;5038008;28;20367;-63
2022/02/03 08:50:19;;;;;;;61.47;20.67;;;;;;;;;;5034256;28;20044;-62
2022/02/03 08:52:57;;;;;;;60.70;21.02;;;;;;;;;;5036494;28;20033;-62
2022/02/03 09:53:18;;;;;;;34.33;12.68;;;;;;;;;;5044006;28;20068;-64
2022/02/03 09:58:39;;;;;;;27.42;13.43;;;;;;;;;;5043060;28;20037;-63
2022/02/03 10:01:08;;;;;;;30.97;12.37;;;;;;;;;;5047905;28;20024;-63
2022/02/03 10:03:49;;;;;;;34.72;12.15;;;;;;;;;;5029960;28;21262;-63
2022/02/03 10:06:19;;;;;;;32.13;12.25;;;;;;;;;;5050780;28;20503;-63
2022/02/03 10:08:49;;;;;;;33.78;12.45;;;;;;;;;;5065150;28;20039;-62
2022/02/03 10:11:21;;;;;;;33.17;12.07;;;;;;;;;;5047460;28;20090;-62
2022/02/03 10:13:51;;;;;;;30.80;11.10;;;;;;;;;;5048429;28;20043;-62
2022/02/03 10:16:28;;;;;;;28.88;10.50;;;;;;;;;;5048234;28;20196;-63
2022/02/03 10:19:16;;;;;;;29.25;11.55;;;;;;;;;;5049315;28;20016;-63
2022/02/03 10:21:43;;;;;;;28.38;11.43;;;;;;;;;;5065225;28;20401;-63
2022/02/03 10:24:16;;;;;;;28.67;11.63;;;;;;;;;;5047885;28;20428;-63
2022/02/03 10:26:48;;;;;;;25.88;11.10;;;;;;;;;;5045095;28;20044;-63
2022/02/03 10:29:17;;;;;;;32.60;12.27;;;;;;;;;;5047991;28;20078;-63
2022/02/03 10:31:48;;;;;;;24.45;10.68;;;;;;;;;;5047746;28;20035;-63
2022/02/03 10:34:22;;;;;;;22.52;11.07;;;;;;;;;;5039245;28;20539;-63
2022/02/03 10:36:56;;;;;;;29.02;12.43;;;;;;;;;;5049252;28;20059;-63
2022/02/03 10:39:54;;;;;;;26.77;11.80;;;;;;;;;;5048112;28;20036;-63
2022/02/03 10:56:00;;;;;;;23.15;11.10;;;;;;;;;;5041990;28;20040;-63
2022/02/03 11:08:41;;;;;;;23.95;11.02;;;;;;;;;;5047765;28;20028;-66
2022/02/03 11:11:20;;;;;;;29.25;11.25;;;;;;;;;;5029138;28;20088;-63
2022/02/03 11:13:48;;;;;;;23.00;11.13;;;;;;;;;;5047725;28;20067;-63
2022/02/03 11:16:15;;;;;;;25.48;11.32;;;;;;;;;;5027650;28;20230;-62
2022/02/03 11:18:42;;;;;;;21.15;11.10;;;;;;;;;;5047864;28;20134;-62
2022/02/03 11:21:10;;;;;;;19.92;10.55;;;;;;;;;;5045544;28;20024;-62
2022/02/03 11:23:43;;;;;;;31.92;12.02;;;;;;;;;;5026321;28;20060;-63
2022/02/03 11:26:22;;;;;;;25.55;11.90;;;;;;;;;;5022402;28;20063;-62
2022/02/03 11:29:08;;;;;;;26.55;11.88;;;;;;;;;;5042834;28;20530;-64
2022/02/03 11:59:05;;;;;;;26.98;10.90;;;;;;;;;;5045458;28;20047;-64
2022/02/03 12:02:22;;;;;;;31.98;11.85;;;;;;;;;;5039185;28;20044;-63
2022/02/03 12:10:35;;;;;;;23.15;10.75;;;;;;;;;;5041807;28;20708;-64
2022/02/03 12:16:03;;;;;;;22.50;11.00;;;;;;;;;;5042434;28;20226;-63
2022/02/03 12:21:37;;;;;;;27.05;11.25;;;;;;;;;;5042194;28;21063;-63
2022/02/03 12:27:00;;;;;;;23.77;8.63;;;;;;;;;;5045277;28;20056;-64
2022/02/03 12:29:53;;;;;;;21.70;9.05;;;;;;;;;;5038965;28;20054;-65
2022/02/03 12:40:56;;;;;;;17.58;8.43;;;;;;;;;;5036935;28;20432;-64
2022/02/03 12:43:36;;;;;;;21.42;9.18;;;;;;;;;;5026606;28;20037;-64
2022/02/03 12:46:06;;;;;;;19.50;8.52;;;;;;;;;;5044576;28;20028;-64
2022/02/03 12:48:34;;;;;;;21.23;9.00;;;;;;;;;;5040957;28;20028;-64
2022/02/03 12:51:00;;;;;;;21.02;8.23;;;;;;;;;;5041601;28;20029;-64
2022/02/03 12:53:31;;;;;;;18.80;8.30;;;;;;;;;;5043836;28;20051;-63
2022/02/03 12:56:02;;;;;;;19.55;8.30;;;;;;;;;;5041143;28;21937;-65
2022/02/03 12:58:34;;;;;;;26.10;9.10;;;;;;;;;;5041902;28;20432;-63
2022/02/03 13:01:01;;;;;;;15.10;8.38;;;;;;;;;;5038698;28;20070;-64
2022/02/03 13:03:51;;;;;;;15.13;7.85;;;;;;;;;;5025964;28;20159;-65
2022/02/03 13:06:18;;;;;;;20.45;8.38;;;;;;;;;;5038522;28;20479;-63
2022/02/03 13:08:50;;;;;;;20.52;8.63;;;;;;;;;;5024720;28;20485;-65
2022/02/03 13:11:30;;;;;;;20.83;8.20;;;;;;;;;;5039150;28;20029;-65
2022/02/03 13:19:31;;;;;;;17.50;8.48;;;;;;;;;;5041753;28;20029;-64
2022/02/03 13:27:48;;;;;;;21.48;8.05;;;;;;;;;;5036872;28;20036;-64
2022/02/03 13:30:42;;;;;;;18.40;7.82;;;;;;;;;;5039545;28;20025;-64
2022/02/03 13:33:10;;;;;;;21.10;7.47;;;;;;;;;;5041052;28;20119;-64
2022/02/03 13:36:06;;;;;;;16.38;7.45;;;;;;;;;;5046336;28;20068;-64
2022/02/03 13:38:50;;;;;;;19.65;7.95;;;;;;;;;;5041395;28;20127;-63
2022/02/03 13:41:24;;;;;;;14.88;7.53;;;;;;;;;;5061332;28;20683;-63
2022/02/03 13:43:52;;;;;;;17.42;7.38;;;;;;;;;;5044389;28;20025;-65
2022/02/03 13:46:31;;;;;;;18.02;7.65;;;;;;;;;;5044764;28;20024;-65
2022/02/03 13:48:59;;;;;;;14.20;7.35;;;;;;;;;;5026910;28;20324;-65
2022/02/03 13:51:28;;;;;;;13.95;7.25;;;;;;;;;;5040806;28;20868;-66
2022/02/03 13:54:04;;;;;;;15.18;7.43;;;;;;;;;;5043849;28;20275;-64
2022/02/03 14:13:53;;;;;;;9.30;4.47;;;;;;;;;;5045790;28;20048;-64
2022/02/03 14:17:30;;;;;;;7.70;4.65;;;;;;;;;;5047822;28;20427;-66
2022/02/03 14:22:12;;;;;;;15.50;5.13;;;;;;;;;;5026612;28;20141;-66
2022/02/03 14:29:50;;;;;;;8.52;2.97;;;;;;;;;;5044938;28;20108;-67
2022/02/03 14:32:37;;;;;;;10.40;4.03;;;;;;;;;;5043382;28;20025;-66
2022/02/03 14:35:05;;;;;;;;;;;;;;;;;;5047253;28;20706;-66
2022/02/03 14:37:45;;;;;;;4.22;3.00;;;;;;;;;;5041851;28;19916;-65
2022/02/03 14:42:40;;;;;;;3.95;2.38;;;;;;;;;;5044272;28;20041;-65
2022/02/03 14:45:11;;;;;;;3.38;2.00;;;;;;;;;;5059895;28;20032;-68
2022/02/03 14:47:41;;;;;;;3.75;2.45;;;;;;;;;;5057629;28;20025;-63
2022/02/03 14:50:11;;;;;;;4.18;3.05;;;;;;;;;;5041966;28;20780;-65
2022/02/03 14:58:29;;;;;;;4.78;3.28;;;;;;;;;;5040534;28;20037;-65
2022/02/03 15:00:58;;;;;;;6.28;3.90;;;;;;;;;;5060548;28;20963;-64
2022/02/03 15:03:26;;;;;;;6.20;3.58;;;;;;;;;;5040890;28;20048;-64
2022/02/03 15:06:08;;;;;;;9.85;4.05;;;;;;;;;;5043834;28;20052;-64
2022/02/03 15:16:00;;;;;;;5.97;3.67;;;;;;;;;;5044643;28;20128;-63
2022/02/03 15:18:36;;;;;;;8.20;4.40;;;;;;;;;;5041632;28;20112;-62
2022/02/03 15:21:04;;;;;;;9.63;4.18;;;;;;;;;;5042555;28;20041;-62
2022/02/03 15:23:29;;;;;;;8.35;4.80;;;;;;;;;;5042965;28;20519;-63
2022/02/03 15:25:55;;;;;;;10.98;5.63;;;;;;;;;;5044093;28;20020;-62
2022/02/03 15:28:23;;;;;;;13.68;5.30;;;;;;;;;;5026061;28;20193;-62
2022/02/03 15:30:49;;;;;;;10.13;4.70;;;;;;;;;;5044874;28;20120;-65
2022/02/03 15:33:25;;;;;;;12.02;5.68;;;;;;;;;;5045745;28;20037;-62
2022/02/03 15:35:59;;;;;;;10.50;4.90;;;;;;;;;;5042124;28;20132;-62
2022/02/03 15:38:33;;;;;;;15.38;5.57;;;;;;;;;;5041301;28;20135;-62
2022/02/03 15:41:02;;;;;;;8.20;4.60;;;;;;;;;;5044302;28;20404;-63
2022/02/03 15:43:31;;;;;;;16.45;5.75;;;;;;;;;;5026867;28;20043;-63
2022/02/03 15:46:00;;;;;;;9.75;5.28;;;;;;;;;;5039353;28;20924;-63
2022/02/03 15:48:35;;;;;;;12.43;5.35;;;;;;;;;;5027966;28;20037;-61
2022/02/03 16:17:18;;;;;;;20.60;6.43;;;;;;;;;;5046180;28;20075;-60
2022/02/03 16:54:35;;;;;;;21.48;8.88;;;;;;;;;;5044799;28;20098;-61
2022/02/03 16:57:11;;;;;;;19.73;8.57;;;;;;;;;;5023713;28;20529;-59
2022/02/03 16:59:48;;;;;;;21.85;8.90;;;;;;;;;;5044809;28;20040;-59
2022/02/03 17:02:15;;;;;;;22.25;8.90;;;;;;;;;;5044515;28;20045;-59
2022/02/03 17:04:43;;;;;;;25.75;8.82;;;;;;;;;;5044413;28;21033;-59
2022/02/03 17:10:58;;;;;;;22.42;7.82;;;;;;;;;;5045777;28;20035;-59
2022/02/03 17:13:29;;;;;;;18.90;7.60;;;;;;;;;;5029703;28;20033;-59
2022/02/03 17:15:57;;;;;;;20.38;7.68;;;;;;;;;;5033988;28;20125;-59
2022/02/03 17:18:24;;;;;;;19.63;8.60;;;;;;;;;;5026484;28;20036;-59
2022/02/03 17:20:50;;;;;;;27.65;9.40;;;;;;;;;;5042908;28;20094;-60
2022/02/03 17:23:19;;;;;;;19.67;8.18;;;;;;;;;;5046401;28;20036;-61
2022/02/03 17:28:18;;;;;;;25.92;8.48;;;;;;;;;;5039450;28;20361;-59
2022/02/03 18:17:33;;;;;;;19.27;8.45;;;;;;;;;;5061893;28;20077;-59
2022/02/03 18:34:05;;;;;;;23.77;9.48;;;;;;;;;;5046103;28;20037;-58
2022/02/03 19:09:51;;;;;;;19.75;9.45;;;;;;;;;;5043313;28;20028;-59
2022/02/03 19:14:58;;;;;;;29.35;11.07;;;;;;;;;;5048085;28;20478;-59
2022/02/03 20:08:19;;;;;;;33.75;11.27;;;;;;;;;;5033118;28;20037;-60
2022/02/03 20:10:48;;;;;;;32.22;10.02;;;;;;;;;;5059542;28;20055;-61
2022/02/03 20:13:16;;;;;;;31.27;10.68;;;;;;;;;;5039336;28;20028;-58
2022/02/03 20:15:42;;;;;;;34.70;9.75;;;;;;;;;;5024660;28;20473;-60
2022/02/03 20:18:12;;;;;;;27.70;10.13;;;;;;;;;;5041248;28;20131;-60
2022/02/03 20:24:13;;;;;;;32.88;10.73;;;;;;;;;;5041815;28;20043;-59
2022/02/03 20:26:42;;;;;;;32.10;10.63;;;;;;;;;;5036133;28;20036;-59
2022/02/03 20:29:11;;;;;;;31.20;10.32;;;;;;;;;;5039897;28;20029;-59
2022/02/03 20:31:38;;;;;;;40.33;11.60;;;;;;;;;;5040539;28;20033;-59
2022/02/03 20:34:06;;;;;;;37.50;11.45;;;;;;;;;;5023093;28;20029;-59
2022/02/03 20:36:36;;;;;;;29.30;11.02;;;;;;;;;;5029628;28;20052;-60
2022/02/03 20:39:04;;;;;;;28.65;9.52;;;;;;;;;;5042782;28;20033;-59
2022/02/03 20:41:30;;;;;;;30.45;10.20;;;;;;;;;;5043514;28;20063;-59
2022/02/03 20:43:57;;;;;;;31.25;10.55;;;;;;;;;;5021966;28;20040;-60
2022/02/03 20:46:25;;;;;;;38.35;11.10;;;;;;;;;;5041862;28;20028;-60
2022/02/03 20:48:53;;;;;;;29.33;10.93;;;;;;;;;;5043343;28;20058;-60
2022/02/03 20:51:22;;;;;;;27.35;11.25;;;;;;;;;;5025414;28;20029;-58
2022/02/03 20:53:51;;;;;;;32.70;11.07;;;;;;;;;;5044666;28;20048;-60
2022/02/03 20:56:17;;;;;;;30.67;11.95;;;;;;;;;;5032361;28;20508;-60
2022/02/03 20:58:46;;;;;;;31.80;10.27;;;;;;;;;;5043385;28;20040;-60
2022/02/03 21:03:47;;;;;;;41.35;10.60;;;;;;;;;;5042730;28;20024;-60
2022/02/03 21:06:19;;;;;;;28.70;11.43;;;;;;;;;;5041636;28;20059;-59
2022/02/03 21:08:48;;;;;;;27.83;10.98;;;;;;;;;;5044207;28;20103;-60
2022/02/03 21:11:15;;;;;;;27.10;10.98;;;;;;;;;;5040789;28;20043;-59
2022/02/03 21:13:43;;;;;;;36.58;11.02;;;;;;;;;;5043453;28;20025;-59
2022/02/03 21:16:11;;;;;;;30.30;11.32;;;;;;;;;;5041487;28;20130;-58
2022/02/03 21:18:43;;;;;;;42.58;12.45;;;;;;;;;;5043626;28;20075;-59
2022/02/03 21:21:09;;;;;;;31.30;10.18;;;;;;;;;;5044592;28;20075;-60
2022/02/03 21:23:35;;;;;;;39.25;11.38;;;;;;;;;;5044309;28;20036;-59
2022/02/03 21:26:07;;;;;;;36.20;10.98;;;;;;;;;;5043332;28;20028;-60
2022/02/03 21:28:37;;;;;;;30.38;11.48;;;;;;;;;;5043846;28;20036;-59
2022/02/03 21:31:04;;;;;;;33.58;11.57;;;;;;;;;;5043595;28;20021;-60
2022/02/03 21:33:35;;;;;;;27.88;9.82;;;;;;;;;;5059213;28;20033;-60
2022/02/03 21:36:11;;;;;;;32.17;11.87;;;;;;;;;;5038583;28;20028;-60
2022/02/03 21:38:41;;;;;;;26.17;10.85;;;;;;;;;;5041665;28;20124;-59
2022/02/03 21:41:10;;;;;;;34.92;10.82;;;;;;;;;;5044643;28;20429;-60
2022/02/03 21:43:36;;;;;;;44.10;11.18;;;;;;;;;;5023325;28;20090;-60
2022/02/03 21:46:05;;;;;;;27.98;10.60;;;;;;;;;;5038083;28;20036;-60
2022/02/03 21:48:33;;;;;;;37.63;11.98;;;;;;;;;;5025090;28;20024;-59
2022/02/03 21:51:02;;;;;;;37.65;12.07;;;;;;;;;;5038197;28;22149;-60
2022/02/03 21:53:31;;;;;;;42.47;12.52;;;;;;;;;;5040912;28;21164;-60
2022/02/03 21:55:57;;;;;;;39.42;13.23;;;;;;;;;;5043312;28;20155;-58
2022/02/03 21:58:25;;;;;;;33.00;11.70;;;;;;;;;;5028979;28;20151;-59
2022/02/03 22:00:54;;;;;;;41.70;12.52;;;;;;;;;;5042946;28;20052;-59
2022/02/03 22:03:20;;;;;;;35.33;11.73;;;;;;;;;;5041401;28;20039;-59
2022/02/03 22:05:50;;;;;;;54.60;13.02;;;;;;;;;;5044679;28;20052;-60
2022/02/03 22:08:18;;;;;;;34.38;11.23;;;;;;;;;;5045791;28;20052;-61
2022/02/03 22:10:46;;;;;;;43.47;12.73;;;;;;;;;;5046987;28;20040;-59
2022/02/03 22:13:14;;;;;;;31.38;11.65;;;;;;;;;;5046793;28;20044;-59
2022/02/03 22:15:41;;;;;;;37.45;12.05;;;;;;;;;;5044477;28;20575;-59
2022/02/03 22:18:11;;;;;;;38.90;12.50;;;;;;;;;;5042844;28;20042;-59
2022/02/03 22:20:56;;;;;;;34.38;11.70;;;;;;;;;;5046426;28;20052;-59
2022/02/03 22:38:59;;;;;;;29.88;12.90;;;;;;;;;;5043453;28;20081;-58
2022/02/03 22:48:58;;;;;;;33.25;11.23;;;;;;;;;;5027898;28;21359;-60
2022/02/03 22:51:26;;;;;;;30.27;11.93;;;;;;;;;;5043165;28;20025;-59
2022/02/03 22:53:51;;;;;;;45.20;14.05;;;;;;;;;;5043412;28;20074;-58
2022/02/03 22:56:19;;;;;;;35.75;12.10;;;;;;;;;;5029725;28;22042;-58
2022/02/03 23:02:23;;;;;;;36.95;12.32;;;;;;;;;;5043297;28;20158;-60
2022/02/03 23:04:51;;;;;;;31.95;12.38;;;;;;;;;;5046480;28;20053;-58
2022/02/03 23:07:21;;;;;;;33.35;11.63;;;;;;;;;;5038216;28;20573;-60
2022/02/03 23:10:12;;;;;;;47.53;12.80;;;;;;;;;;5045644;28;20029;-60
2022/02/03 23:12:58;;;;;;;32.22;11.65;;;;;;;;;;5041260;28;20594;-60
2022/02/03 23:21:12;;;;;;;40.43;13.27;;;;;;;;;;5043502;28;20033;-60
2022/02/03 23:23:34;;;;;;;35.80;12.65;;;;;;;;;;5043285;28;20067;-60
2022/02/03 23:26:02;;;;;;;38.00;12.48;;;;;;;;;;5045133;28;20016;-60
2022/02/03 23:28:32;;;;;;;41.80;15.73;;;;;;;;;;5027790;28;20371;-60
2022/02/03 23:30:58;;;;;;;38.05;14.00;;;;;;;;;;5043354;28;20170;-59
2022/02/03 23:33:28;;;;;;;42.58;14.98;;;;;;;;;;5025578;28;20032;-59
2022/02/03 23:35:56;;;;;;;42.22;15.52;;;;;;;;;;5044221;28;20463;-60
2022/02/03 23:38:46;;;;;;;42.10;14.35;;;;;;;;;;5039457;28;20036;-60
